Terminal Aerodrome Forecast
Issued by NWS

Home | Current Version | Previous Version | Graphics & Text | Print | Product List | Glossary On
Versions: 1 2 3 4 5 6 7 8 9 10 11 12 13 14 15 16 17 18 19 20 21 22
000
FTUS43 KICT 050427 AAB
TAFSLN
TAF AMD
KSLN 050427Z 0504/0524 07010KT P6SM VCTS SCT040CB OVC100
      TEMPO 0504/0507 3SM +TSRA BKN035CB OVC080
     FM050700 06007KT P6SM OVC040
     FM051500 17015G22KT P6SM SCT040 BKN100=

USA.gov is the U.S. government's official web portal to all federal, state and local government web resources and services.